ADDS METAR Data INFO
IDs: Format: Raw Decoded Include TAF

Data at: 1934 UTC 18 Feb 2018

K08D 180335Z AUTO 00000KT 8SM SCT065 BKN075 OVC090 M13/M15 A2984 RMK AO2
K08D 180315Z AUTO 01003KT 7SM OVC065 M13/M15 A2985 RMK AO2
K08D 180255Z AUTO 35003KT 7SM OVC065 M13/M15 A2986 RMK AO2
K08D 180235Z AUTO 00000KT 8SM BKN065 OVC075 M14/M16 A2986 RMK AO2
K08D 180215Z AUTO 00000KT 8SM BKN070 OVC120 M13/M15 A2988 RMK AO2
K08D 180155Z AUTO 27006KT 8SM BKN120 M13/M16 A2988 RMK AO2
K08D 180135Z AUTO 00000KT 8SM FEW070 BKN085 BKN100 M13/M16 A2989 RMK AO2
K08D 180115Z AUTO 29005KT 10SM OVC090 M13/M16 A2988 RMK AO2
K08D 180055Z AUTO 31004KT 10SM BKN100 M12/M16 A2988 RMK AO2
K08D 180035Z AUTO 29003KT 10SM CLR M12/M15 A2989 RMK AO2
K08D 180015Z AUTO 29007KT 10SM CLR M12/M15 A2990 RMK AO2
K08D 172355Z AUTO 27006KT 10SM CLR M12/M15 A2990 RMK AO2
K08D 172335Z AUTO 29005KT 10SM CLR M12/M15 A2991 RMK AO2
K08D 172315Z AUTO 31009KT 10SM CLR M11/M15 A2990 RMK AO2
K08D 172255Z AUTO 29008G14KT 6SM HZ CLR M11/M15 A2992 RMK AO2
K08D 172235Z AUTO 28012KT 6SM HZ CLR M11/M15 A2992 RMK AO2
K08D 172215Z AUTO 30013KT 7SM FEW015 M10/M15 A2991 RMK AO2
K08D 172155Z AUTO 29012KT 10SM FEW016 M10/M15 A2992 RMK AO2
K08D 172135Z AUTO 30015G21KT 10SM CLR M10/M15 A2992 RMK AO2
K08D 172115Z AUTO 30017KT 9SM CLR M10/M15 A2993 RMK AO2
K08D 172055Z AUTO 30014G19KT 10SM FEW017 M10/M15 A2992 RMK AO2
K08D 172035Z AUTO 31011G20KT 10SM CLR M10/M15 A2993 RMK AO2
K08D 172015Z AUTO 32014G21KT 9SM FEW022 M10/M15 A2994 RMK AO2
K08D 171955Z AUTO 31018KT 7SM CLR M10/M15 A2994 RMK AO2
K08D 171935Z AUTO 30018G23KT 10SM CLR M10/M14 A2995 RMK AO2
K08D 171915Z AUTO 30017KT 9SM BKN016 BKN022 M10/M13 A2995 RMK AO2
K08D 171855Z AUTO 29015G20KT 10SM BKN017 BKN022 M09/M13 A2996 RMK AO2
K08D 171835Z AUTO 15.00000015G22KT 10SM -SN FEW015 M09/M13 A2996 RMK AO2
K08D 171815Z AUTO 30013G21KT 10SM CLR M10/M13 A2996 RMK AO2
K08D 171755Z AUTO 29018G25KT 10SM CLR M10/M13 A2996 RMK AO2
K08D 171735Z AUTO 29016G23KT 10SM FEW014 M10/M13 A2995 RMK AO2
K08D 171715Z AUTO 28015G20KT 10SM FEW014 M10/M12 A2994 RMK AO2
K08D 171655Z AUTO 28015G21KT 10SM CLR M10/M12 A2993 RMK AO2
K08D 171635Z AUTO 28014KT 10SM SCT013 M10/M12 A2993 RMK AO2
K08D 171615Z AUTO 28009KT 10SM -SN BKN013 OVC027 M10/M12 A2993 RMK AO2
K08D 171555Z AUTO 28009G14KT 9SM -SN FEW016 OVC028 M11/M13 A2993 RMK AO2
K08D 171535Z AUTO 27009KT 10SM BKN031 M13/M14 A2992 RMK AO2
K08D 171515Z AUTO 28006KT 10SM FEW024 BKN035 M14/M15 A2992 RMK AO2
K08D 171455Z AUTO 27008KT 10SM OVC036 M15/M16 A2992 RMK AO2
K08D 171435Z AUTO 30006KT 10SM FEW015 FEW029 OVC036 M15/M16 A2991 RMK AO2
K08D 171415Z AUTO 29006KT 10SM FEW015 FEW029 SCT037 M16/M17 A2991 RMK AO2
K08D 171355Z AUTO 29007KT 10SM FEW043 M15/M16 A2990 RMK AO2
K08D 171335Z AUTO 30009KT 10SM OVC043 M15/M15 A2990 RMK AO2
K08D 171315Z AUTO 30010KT 10SM OVC044 M14/M15 A2989 RMK AO2
K08D 171255Z AUTO 30009KT 10SM OVC042 M13/M14 A2989 RMK AO2
K08D 171235Z AUTO 29007KT 10SM OVC042 M14/M15 A2988 RMK AO2
K08D 171215Z AUTO 29009KT 10SM FEW028 FEW033 OVC041 M15/M15 A2988 RMK AO2
K08D 171155Z AUTO 29007KT 10SM SCT027 BKN034 BKN041 M14/M15 A2987 RMK AO2
K08D 171135Z AUTO 29008KT 10SM FEW008 FEW025 SCT032 M13/M14 A2986 RMK AO2
K08D 171115Z AUTO 29009KT 10SM BKN008 M12/M13 A2985 RMK AO2
K08D 171055Z AUTO 30008KT 10SM OVC009 M12/M13 A2984 RMK AO2
K08D 171035Z AUTO 29007KT 9SM OVC009 M13/M13 A2984 RMK AO2
K08D 171015Z AUTO 30007KT 8SM BKN011 M13/M13 A2983 RMK AO2
K08D 170955Z AUTO 31010KT 8SM SCT012 M12/M13 A2982 RMK AO2
K08D 170935Z AUTO 32008KT 8SM FEW011 M12/M13 A2981 RMK AO2
K08D 170915Z AUTO 31007KT 9SM SCT015 M11/M12 A2981 RMK AO2
K08D 170855Z AUTO 32008KT 10SM FEW031 FEW040 M11/M12 A2980 RMK AO2
K08D 170835Z AUTO 32008KT 8SM BKN032 OVC040 M11/M11 A2980 RMK AO2
K08D 170815Z AUTO 33008KT 8SM SCT027 SCT032 OVC040 M11/M12 A2980 RMK AO2
K08D 170755Z AUTO 32008KT 8SM BKN028 OVC038 M12/M13 A2979 RMK AO2
K08D 170735Z AUTO 28006KT 10SM SCT019 BKN029 OVC038 M12/M13 A2979 RMK AO2